Portada
METAR-TAF:

METAR-TAF

Aeropuertos :

Rota, España

Base Naval de Rota

latitud: 36-39N, longitud: 006-21W, altitud: 26 m

Observación

El informe se hizo hace 1 hora y 18 minutos, a las 08:00 UTC
Viento 5 kt del sureste, variando entre este y sur-sureste
Temperatura 17°C
Humedad 63%
Presión 1015 hPa
Visibilidad 10 km o más
Escasas nubes a una altura de 1700 ft

METAR: LERT 240800Z 13005KT 090V160 9999 FEW017 17/10 Q1015 NOSIG

Hora: 11:18 (09:18 UTC)

Pronóstico

El informe se hizo hace 1 hora y 18 minutos, a las 08:00 UTC
Pronóstico válido del 24 a las 09 UTC al 24 a las 18 UTC
Viento 7 kt del este-sureste
Visibilidad 10 km o más
Nubes dispersas a una altura de 2000 ft
Evolucionando progresivamente
del 24 a las 09 UTC al 24 a las 12 UTC
Viento 10 kt del suroeste

TAF: LERT 240800Z 2409/2418 12007KT 9999 SCT020 BECMG 2409/2412 22010KT

Observaciones y pronósticos meteorológicos de más de 4000 aeropuertos (mensajes METAR y TAF).

Los puntos amarillos y rojos representan las estaciones disponibles.

Ponga el ratón en el punto deseado para ver el nombre de la estación.

Haga clic para ver las observaciones y los pronósticos meteorológicos.

Para cambiar el mapa : haga clic en los botones verdes con una cruz de color negro para hacer un zoom, en el botón verde con un guión para alejar o en las flechas verdes para mapas adyacentes.


METAR-TAF: